createdAt,value
2023-04-05T00:33:07.488Z,6.32
2023-04-05T00:52:09.386Z,8.23
2023-04-05T00:54:37.167Z,7.47
2023-04-05T00:57:06.313Z,8.10
2023-04-05T00:59:33.330Z,7.28
2023-04-05T01:02:09.073Z,6.90
2023-04-05T01:07:42.491Z,6.70
2023-04-05T01:10:11.040Z,7.22
2023-04-05T01:12:38.100Z,7.28
2023-04-05T01:20:14.359Z,7.93
2023-04-05T01:23:00.255Z,7.70
2023-04-05T01:25:42.392Z,8.25
2023-04-05T01:28:29.003Z,7.07
2023-04-05T01:31:09.804Z,7.28
2023-04-05T01:33:55.485Z,7.93
2023-04-05T01:44:29.409Z,7.70
2023-04-05T01:46:56.807Z,7.40
2023-04-05T01:49:24.337Z,8.38
2023-04-05T01:51:51.452Z,7.03
2023-04-05T01:54:18.393Z,7.50
2023-04-05T01:56:46.291Z,7.55
2023-04-05T01:59:13.242Z,6.85
2023-04-05T02:01:40.126Z,6.78
2023-04-05T02:11:57.577Z,7.18
2023-04-05T02:14:25.159Z,8.10
2023-04-05T02:22:22.401Z,7.57
2023-04-05T02:24:49.370Z,7.32
2023-04-05T02:38:10.522Z,8.00
2023-04-05T02:40:37.849Z,7.70
2023-04-05T02:43:04.790Z,8.13
2023-04-05T02:53:51.433Z,8.32
2023-04-05T03:04:02.969Z,7.95
2023-04-05T03:37:20.446Z,8.10
2023-04-05T03:39:47.406Z,8.23
2023-04-05T03:42:16.259Z,7.78
2023-04-05T03:44:43.245Z,8.48
2023-04-05T03:49:45.502Z,8.32
2023-04-05T04:09:05.896Z,7.72
2023-04-05T04:11:32.812Z,8.80
2023-04-05T04:13:59.731Z,8.15
2023-04-05T04:16:28.694Z,8.13
2023-04-05T04:18:59.733Z,6.90
2023-04-05T04:21:26.599Z,8.35
2023-04-05T04:23:53.507Z,8.45
2023-04-05T04:28:56.215Z,7.62
2023-04-05T04:31:23.240Z,6.65
2023-04-05T04:33:50.446Z,8.07
2023-04-05T04:36:19.092Z,7.82
2023-04-05T04:48:26.826Z,7.25
2023-04-05T04:50:54.915Z,8.93
2023-04-05T04:53:24.192Z,6.72
2023-04-05T04:58:26.861Z,7.75
2023-04-05T05:01:32.179Z,8.05
2023-04-05T05:16:24.694Z,7.30
2023-04-05T05:18:52.744Z,7.12
2023-04-05T05:21:19.627Z,6.65
2023-04-05T05:26:14.670Z,7.28
2023-04-05T05:28:41.548Z,6.12
2023-04-05T05:33:35.280Z,6.57
2023-04-05T05:36:04.248Z,7.18
2023-04-05T05:38:31.131Z,7.22
2023-04-05T05:43:25.124Z,6.20
2023-04-05T05:45:52.020Z,6.18
2023-04-05T05:48:18.890Z,6.28
2023-04-05T05:53:16.570Z,6.53
2023-04-05T05:55:43.586Z,7.07
2023-04-05T06:00:43.195Z,6.60
2023-04-05T06:03:11.055Z,6.82
2023-04-05T06:05:37.978Z,6.70
2023-04-05T06:10:31.818Z,6.57
2023-04-05T06:12:58.818Z,6.87
2023-04-05T06:15:25.824Z,6.90
2023-04-05T06:17:52.761Z,7.18
2023-04-05T06:20:19.724Z,6.72
2023-04-05T06:22:46.672Z,6.97
2023-04-05T06:25:13.841Z,7.35
2023-04-05T06:27:41.335Z,5.93
2023-04-05T06:30:08.682Z,7.10
2023-04-05T06:32:35.788Z,6.95
2023-04-05T06:35:04.134Z,6.80
2023-04-05T06:37:31.561Z,6.68
2023-04-05T06:39:59.557Z,6.47
2023-04-05T06:42:27.907Z,6.32
2023-04-05T06:44:55.363Z,5.80
2023-04-05T06:47:22.236Z,6.43
2023-04-05T06:52:15.774Z,6.15
2023-04-05T06:54:42.618Z,6.07
2023-04-05T06:59:37.175Z,6.95
2023-04-05T07:02:04.126Z,7.25
2023-04-05T07:04:35.701Z,6.32
2023-04-05T07:07:03.767Z,6.62
2023-04-05T07:09:32.869Z,5.60
2023-04-05T07:12:01.558Z,6.43
2023-04-05T07:14:30.530Z,6.18
2023-04-05T07:16:57.555Z,6.65
2023-04-05T07:19:24.535Z,6.15
2023-04-05T07:21:51.406Z,5.90
2023-04-05T07:26:45.310Z,6.28
2023-04-05T07:29:13.123Z,6.37
2023-04-05T07:31:42.931Z,6.40
2023-04-05T07:34:09.976Z,6.10
2023-04-05T07:36:38.039Z,5.85
2023-04-05T07:39:05.518Z,6.28
2023-04-05T07:41:32.498Z,6.37
2023-04-05T07:43:59.375Z,6.40
2023-04-05T07:51:21.458Z,6.28
2023-04-05T07:56:16.417Z,6.12
2023-04-05T07:58:43.352Z,6.03
2023-04-05T08:01:11.355Z,6.10
2023-04-05T08:03:40.071Z,6.22
2023-04-05T08:06:19.616Z,6.20
2023-04-05T08:08:47.458Z,6.87
2023-04-05T08:11:14.353Z,6.05
2023-04-05T08:16:09.930Z,6.03
2023-04-05T08:18:37.118Z,5.80
2023-04-05T08:21:04.311Z,6.18
2023-04-05T08:23:32.136Z,6.20
2023-04-05T08:25:59.011Z,4.85
2023-04-05T08:28:26.039Z,6.20
2023-04-05T08:30:56.700Z,6.25
2023-04-05T08:33:24.356Z,5.50
2023-04-05T08:35:51.673Z,4.93
2023-04-05T08:38:18.674Z,5.62
2023-04-05T08:40:47.532Z,5.90
2023-04-05T08:43:26.120Z,5.60
2023-04-05T08:45:53.707Z,6.45
2023-04-05T08:48:20.883Z,6.55
2023-04-05T08:50:54.482Z,6.10
2023-04-05T08:53:22.095Z,5.72
2023-04-05T08:55:56.634Z,4.95
2023-04-05T08:58:24.809Z,5.95
2023-04-05T09:00:52.328Z,6.72
2023-04-05T09:03:24.007Z,4.05
2023-04-05T09:05:52.121Z,4.45
2023-04-05T09:08:21.503Z,4.53
2023-04-05T09:10:51.741Z,5.90
2023-04-05T09:13:19.201Z,5.75
2023-04-05T09:15:46.972Z,5.90
2023-04-05T09:18:25.400Z,6.18
2023-04-05T09:21:02.044Z,4.70
2023-04-05T09:23:29.299Z,6.22
2023-04-05T09:25:56.248Z,5.82
2023-04-05T09:28:23.172Z,7.03
2023-04-05T09:30:50.101Z,6.37
2023-04-05T09:33:22.538Z,5.45
2023-04-05T09:35:51.768Z,5.60
2023-04-05T09:38:18.748Z,6.10
2023-04-05T09:40:49.907Z,6.12
2023-04-05T09:43:39.174Z,6.30
2023-04-05T09:46:06.176Z,6.12
2023-04-05T09:53:37.950Z,6.10
2023-04-05T09:56:13.817Z,5.60
2023-04-05T09:58:40.762Z,6.32
2023-04-05T10:03:48.433Z,6.15
2023-04-05T10:06:19.007Z,6.62
2023-04-05T10:08:49.327Z,5.72
2023-04-05T10:11:18.937Z,6.50
2023-04-05T10:13:46.243Z,5.85
2023-04-05T10:16:17.460Z,6.72
2023-04-05T10:18:49.869Z,6.97
2023-04-05T10:21:21.584Z,6.40
2023-04-05T10:23:56.330Z,5.68
2023-04-05T10:26:39.124Z,5.93
2023-04-05T10:29:12.760Z,6.15
2023-04-05T10:31:55.916Z,6.28
2023-04-05T10:34:32.458Z,5.28
2023-04-05T10:37:02.091Z,6.35
2023-04-05T10:39:35.831Z,6.00
2023-04-05T10:42:10.435Z,5.50
2023-04-05T10:44:37.902Z,5.70
2023-04-05T10:47:06.062Z,6.25
2023-04-05T10:49:54.136Z,5.93
2023-04-05T10:52:22.405Z,4.55
2023-04-05T10:54:49.880Z,6.03
2023-04-05T10:57:19.743Z,6.45
2023-04-05T10:59:47.363Z,5.90
2023-04-05T11:02:14.779Z,5.82
2023-04-05T11:04:42.711Z,5.35
2023-04-05T11:07:19.842Z,6.28
2023-04-05T11:10:00.422Z,6.05
2023-04-05T11:12:46.223Z,6.22
2023-04-05T11:15:28.188Z,6.62
2023-04-05T11:18:04.453Z,6.75
2023-04-05T11:20:56.403Z,6.90
2023-04-05T11:23:25.280Z,5.85
2023-04-05T11:26:06.699Z,6.68
2023-04-05T11:28:39.651Z,6.25
2023-04-05T11:31:19.966Z,6.50
2023-04-05T11:34:10.056Z,6.57
2023-04-05T11:36:38.599Z,6.22
2023-04-05T11:39:23.785Z,5.90
2023-04-05T11:42:05.019Z,5.95
2023-04-05T11:44:49.356Z,5.78
2023-04-05T11:47:23.192Z,5.55
2023-04-05T11:49:51.357Z,6.20
2023-04-05T11:52:20.780Z,5.47
2023-04-05T11:54:49.158Z,5.90
2023-04-05T11:57:20.072Z,5.97
2023-04-05T11:59:47.053Z,6.10
2023-04-05T12:02:13.931Z,5.87
2023-04-05T12:04:40.892Z,5.72
2023-04-05T12:07:17.981Z,5.55
2023-04-05T12:10:16.239Z,5.78
2023-04-05T12:12:45.202Z,5.18
2023-04-05T12:15:14.846Z,5.18
2023-04-05T12:17:44.202Z,4.85
2023-04-05T12:20:13.087Z,5.03
2023-04-05T12:22:42.179Z,5.20
2023-04-05T12:25:09.779Z,5.07
2023-04-05T12:27:36.987Z,4.45
2023-04-05T12:30:07.999Z,4.60
2023-04-05T12:32:51.420Z,4.45
2023-04-05T12:35:22.665Z,4.55
2023-04-05T12:37:51.061Z,4.20
2023-04-05T12:40:23.106Z,3.28
2023-04-05T12:42:50.566Z,3.65
2023-04-05T12:45:18.726Z,4.47
2023-04-05T12:47:58.269Z,4.05
2023-04-05T12:50:31.875Z,4.03
2023-04-05T12:53:05.813Z,3.33
2023-04-05T12:55:33.197Z,4.15
2023-04-05T12:58:01.926Z,4.00
2023-04-05T13:00:29.862Z,3.92
2023-04-05T13:02:58.365Z,4.00
2023-04-05T13:05:27.604Z,4.12
2023-04-05T13:07:54.687Z,4.03
2023-04-05T13:10:23.755Z,3.80
2023-04-05T13:12:50.852Z,3.90
2023-04-05T13:15:18.416Z,4.00
2023-04-05T13:17:45.997Z,4.00
2023-04-05T13:20:12.984Z,3.70
2023-04-05T13:22:40.021Z,3.70
2023-04-05T13:25:07.309Z,3.60
2023-04-05T13:27:34.221Z,3.35
2023-04-05T13:30:01.081Z,3.67
2023-04-05T13:34:54.680Z,3.58
2023-04-05T13:39:48.240Z,3.95
2023-04-05T13:42:15.167Z,3.62
2023-04-05T13:44:42.038Z,3.37
2023-04-05T13:49:36.344Z,3.47
2023-04-05T13:52:03.255Z,3.50
2023-04-05T13:54:30.098Z,3.33
2023-04-05T13:59:24.186Z,3.40
2023-04-05T14:01:51.388Z,3.40
2023-04-05T14:04:18.421Z,3.30
2023-04-05T14:06:45.477Z,3.20
2023-04-05T14:09:12.497Z,3.10
2023-04-05T14:11:39.476Z,2.60
2023-04-05T14:14:07.065Z,3.50
2023-04-05T14:16:34.264Z,3.40
2023-04-05T14:19:01.219Z,3.37
2023-04-05T14:21:28.151Z,3.37
2023-04-05T14:23:57.254Z,3.15
2023-04-05T14:26:26.316Z,2.75
2023-04-05T14:28:53.934Z,2.85
2023-04-05T14:31:20.931Z,3.50
2023-04-05T14:33:47.858Z,3.12
2023-04-05T14:38:41.540Z,3.55
2023-04-05T14:41:08.657Z,3.05
2023-04-05T14:43:35.894Z,3.12
2023-04-05T14:46:02.900Z,3.37
2023-04-05T14:48:31.992Z,2.95
2023-04-05T14:50:59.335Z,3.62
2023-04-05T14:53:26.364Z,3.40
2023-04-05T14:55:53.255Z,3.62
2023-04-05T14:58:21.340Z,3.95
2023-04-05T15:00:52.094Z,3.12
2023-04-05T15:03:19.864Z,3.45
2023-04-05T15:05:47.678Z,4.85
2023-04-05T15:08:15.717Z,4.85
2023-04-05T15:10:43.374Z,4.45
2023-04-05T15:13:10.739Z,4.60
2023-04-05T15:15:38.039Z,4.70
2023-04-05T15:18:05.534Z,4.80
2023-04-05T15:20:33.084Z,4.15
2023-04-05T15:23:00.603Z,2.95
2023-04-05T15:25:27.456Z,4.47
2023-04-05T15:30:22.248Z,4.18
2023-04-05T15:32:49.225Z,3.67
2023-04-05T15:35:16.435Z,4.00
2023-04-05T15:37:43.475Z,4.00
2023-04-05T15:40:10.828Z,4.10
2023-04-05T15:42:37.785Z,3.70
2023-04-05T15:45:05.229Z,4.50
2023-04-05T15:47:32.166Z,4.50
2023-04-05T15:49:59.105Z,4.70
2023-04-05T15:52:26.130Z,4.57
2023-04-05T15:54:53.029Z,4.25
2023-04-05T15:59:46.917Z,3.80
2023-04-05T16:02:13.978Z,4.43
2023-04-05T16:04:41.000Z,4.60
2023-04-05T16:07:09.082Z,4.10
2023-04-05T16:09:35.976Z,4.28
2023-04-05T16:14:29.598Z,3.70
2023-04-05T16:16:56.860Z,3.65
2023-04-05T16:19:24.133Z,4.10
2023-04-05T16:21:52.867Z,4.12
2023-04-05T16:24:20.232Z,4.43
2023-04-05T16:26:47.108Z,4.30
2023-04-05T16:31:40.938Z,4.37
2023-04-05T16:34:08.268Z,4.62
2023-04-05T16:36:35.189Z,4.78
2023-04-05T16:39:02.470Z,4.37
2023-04-05T16:41:29.593Z,3.80
2023-04-05T16:43:56.489Z,4.18
2023-04-05T16:48:50.544Z,5.05
2023-04-05T16:51:17.538Z,4.12
2023-04-05T16:53:44.472Z,4.40
2023-04-05T16:56:11.466Z,4.32
2023-04-05T16:58:38.400Z,4.40
2023-04-05T17:01:05.931Z,4.12
2023-04-05T17:03:33.000Z,4.22
2023-04-05T17:05:59.979Z,4.10
2023-04-05T17:08:27.205Z,3.92
2023-04-05T17:10:54.218Z,4.72
2023-04-05T17:13:21.286Z,4.00
2023-04-05T17:15:49.386Z,4.32
2023-04-05T17:18:16.443Z,4.30
2023-04-05T17:20:43.388Z,4.62
2023-04-05T17:23:10.367Z,4.87
2023-04-05T17:25:37.316Z,4.15
2023-04-05T17:28:04.331Z,4.45
2023-04-05T17:30:31.936Z,3.80
2023-04-05T17:32:58.992Z,4.80
2023-04-05T17:35:26.039Z,4.47
2023-04-05T17:37:53.221Z,4.50
2023-04-05T17:40:20.135Z,4.30
2023-04-05T17:42:47.000Z,4.22
2023-04-05T17:47:40.755Z,4.35
2023-04-05T17:50:08.084Z,4.00
2023-04-05T17:52:34.992Z,4.00
2023-04-05T17:55:01.939Z,4.10
2023-04-05T17:57:28.884Z,4.37
2023-04-05T17:59:57.538Z,4.20
2023-04-05T18:02:24.483Z,4.50
2023-04-05T18:04:51.413Z,4.75
2023-04-05T18:07:18.303Z,4.43
2023-04-05T18:09:45.207Z,4.25
2023-04-05T18:12:12.307Z,4.32
2023-04-05T18:14:39.205Z,4.12
2023-04-05T18:17:07.585Z,4.30
2023-04-05T18:19:34.730Z,4.22
2023-04-05T18:22:01.707Z,3.92
2023-04-05T18:24:29.633Z,4.03
2023-04-05T18:26:57.607Z,4.28
2023-04-05T18:29:30.897Z,4.32
2023-04-05T18:31:58.060Z,4.25
2023-04-05T18:34:25.168Z,4.43
2023-04-05T18:36:52.112Z,4.50
2023-04-05T18:39:20.325Z,4.75
2023-04-05T18:41:47.677Z,3.80
2023-04-05T18:44:14.645Z,4.18
2023-04-05T18:46:41.787Z,4.28
2023-04-05T18:49:09.084Z,4.10
2023-04-05T18:51:36.325Z,4.00
2023-04-05T18:54:03.585Z,4.00
2023-04-05T18:56:30.493Z,3.92
2023-04-05T18:58:57.484Z,3.78
2023-04-05T19:01:24.621Z,4.25
2023-04-05T19:03:51.635Z,4.10
2023-04-05T19:06:18.707Z,3.75
2023-04-05T19:08:48.165Z,3.60
2023-04-05T19:11:15.210Z,4.35
2023-04-05T19:13:42.275Z,3.90
2023-04-05T19:16:09.343Z,3.55
2023-04-05T19:18:36.319Z,3.80
2023-04-05T19:21:03.285Z,3.90
2023-04-05T19:23:30.630Z,3.45
2023-04-05T19:25:58.150Z,3.62
2023-04-05T19:28:26.137Z,3.45
2023-04-05T19:30:53.727Z,3.33
2023-04-05T19:33:21.818Z,3.75
2023-04-05T19:35:49.291Z,3.58
2023-04-05T19:38:16.455Z,3.75
2023-04-05T19:40:43.462Z,3.08
2023-04-05T19:43:11.624Z,3.80
2023-04-05T19:45:38.628Z,4.03
2023-04-05T19:48:31.399Z,3.95
2023-04-05T19:51:00.215Z,4.00
2023-04-05T19:53:32.112Z,4.00
2023-04-05T19:55:58.994Z,4.28
2023-04-05T20:00:55.814Z,3.65
2023-04-05T20:03:34.029Z,3.58
2023-04-05T20:06:06.345Z,3.58
2023-04-05T20:08:35.253Z,3.83
2023-04-05T20:11:05.760Z,3.58
2023-04-05T20:13:33.016Z,4.10
2023-04-05T20:16:00.173Z,3.80
2023-04-05T20:18:27.484Z,4.05
2023-04-05T20:20:54.792Z,4.05
2023-04-05T20:23:22.920Z,3.42
2023-04-05T20:25:50.830Z,3.75
2023-04-05T20:28:38.405Z,3.70
2023-04-05T20:31:08.039Z,3.62
2023-04-05T20:33:53.489Z,3.30
2023-04-05T20:36:22.658Z,3.75
2023-04-05T20:38:50.533Z,3.97
2023-04-05T20:41:18.837Z,3.90
2023-04-05T20:43:46.056Z,3.60
2023-04-05T20:46:13.106Z,3.50
2023-04-05T20:48:40.079Z,4.15
2023-04-05T20:51:08.099Z,3.70
2023-04-05T20:53:36.473Z,3.40
2023-04-05T20:56:04.950Z,3.25
2023-04-05T20:58:31.901Z,3.15
2023-04-05T21:01:02.973Z,3.67
2023-04-05T21:03:34.234Z,3.67
2023-04-05T21:06:01.949Z,3.75
2023-04-05T21:08:30.106Z,3.33
2023-04-05T21:10:58.876Z,3.72
2023-04-05T21:13:25.862Z,3.97
2023-04-05T21:15:56.568Z,3.42
2023-04-05T21:18:24.656Z,3.30
2023-04-05T21:20:53.051Z,3.90
2023-04-05T21:23:23.960Z,3.53
2023-04-05T21:25:50.843Z,3.30
2023-04-05T21:28:17.756Z,3.50
2023-04-05T21:30:45.079Z,3.62
2023-04-05T21:33:12.686Z,3.90
2023-04-05T21:35:39.886Z,3.40
2023-04-05T21:38:07.033Z,4.37
2023-04-05T21:40:34.031Z,4.10
2023-04-05T21:43:00.989Z,3.80
2023-04-05T21:45:27.950Z,4.00
2023-04-05T21:50:21.809Z,3.80
2023-04-05T21:52:48.829Z,4.03
2023-04-05T21:55:15.988Z,4.10
2023-04-05T21:57:42.850Z,3.42
2023-04-05T22:02:39.799Z,3.62
2023-04-05T22:05:08.150Z,3.60
2023-04-05T22:07:36.042Z,3.80
2023-04-05T22:10:03.420Z,4.57
2023-04-05T22:12:30.781Z,3.90
2023-04-05T22:14:57.712Z,4.57
2023-04-05T22:17:24.637Z,3.47
2023-04-05T22:19:51.603Z,4.32
2023-04-05T22:22:19.709Z,3.62
2023-04-05T22:24:47.544Z,3.80
2023-04-05T22:27:14.450Z,3.80
2023-04-05T22:29:41.390Z,3.97
2023-04-05T22:32:08.350Z,4.35
2023-04-05T22:34:35.583Z,4.30
2023-04-05T22:37:02.562Z,4.07
2023-04-05T22:39:29.473Z,4.43
2023-04-05T22:41:56.837Z,3.85
2023-04-05T22:44:24.701Z,4.80
2023-04-05T22:46:51.715Z,4.22
2023-04-05T22:49:18.651Z,4.32
2023-04-05T22:51:45.566Z,4.28
2023-04-05T22:56:39.193Z,4.53
2023-04-05T22:59:06.490Z,4.20
2023-04-05T23:01:33.956Z,4.07
2023-04-05T23:04:01.005Z,4.68
2023-04-05T23:06:27.951Z,4.43
2023-04-05T23:08:54.875Z,4.32
